createdAt,value
2018-07-14T00:02:22.185Z,20.40
2018-07-14T00:04:50.080Z,20.20
2018-07-14T00:07:17.576Z,20.20
2018-07-14T00:09:45.072Z,20.20
2018-07-14T00:12:12.550Z,20.40
2018-07-14T00:14:40.059Z,20.20
2018-07-14T00:17:07.547Z,20.20
2018-07-14T00:19:35.065Z,20.10
2018-07-14T00:22:02.327Z,20.10
2018-07-14T00:24:29.863Z,20.30
2018-07-14T00:26:57.255Z,20.10
2018-07-14T00:29:24.715Z,20.10
2018-07-14T00:31:52.225Z,20.10
2018-07-14T00:34:19.681Z,20.10
2018-07-14T00:36:47.153Z,20.10
2018-07-14T00:39:14.551Z,19.80
2018-07-14T00:41:42.084Z,20.30
2018-07-14T00:44:09.575Z,20.30
2018-07-14T00:46:36.861Z,20.00
2018-07-14T00:49:04.516Z,20.00
2018-07-14T00:53:59.588Z,20.00
2018-07-14T00:56:27.043Z,19.90
2018-07-14T00:58:54.344Z,19.90
2018-07-14T01:01:21.908Z,19.90
2018-07-14T01:03:49.412Z,19.90
2018-07-14T01:06:16.703Z,20.00
2018-07-14T01:08:44.156Z,20.00
2018-07-14T01:11:11.591Z,19.80
2018-07-14T01:13:39.168Z,19.80
2018-07-14T01:16:06.420Z,19.70
2018-07-14T01:18:33.900Z,19.70
2018-07-14T01:21:01.367Z,19.60
2018-07-14T01:23:28.807Z,19.80
2018-07-14T01:25:56.247Z,19.90
2018-07-14T01:28:23.657Z,19.50
2018-07-14T01:30:51.187Z,19.50
2018-07-14T01:33:18.647Z,19.50
2018-07-14T01:35:46.097Z,19.50
2018-07-14T01:38:13.667Z,19.40
2018-07-14T01:40:41.053Z,19.70
2018-07-14T01:43:08.491Z,19.40
2018-07-14T01:45:35.794Z,19.40
2018-07-14T01:48:03.303Z,19.50
2018-07-14T01:50:30.735Z,19.60
2018-07-14T01:52:58.196Z,19.20
2018-07-14T01:55:25.651Z,19.50
2018-07-14T01:57:53.140Z,19.20
2018-07-14T02:00:20.651Z,19.20
2018-07-14T02:02:48.135Z,19.10
2018-07-14T02:05:15.575Z,19.10
2018-07-14T02:07:43.064Z,19.20
2018-07-14T02:10:10.540Z,19.10
2018-07-14T02:12:38.486Z,19.20
2018-07-14T02:15:05.803Z,19.10
2018-07-14T02:17:33.073Z,19.00
2018-07-14T02:20:00.327Z,19.10
2018-07-14T02:22:28.171Z,19.20
2018-07-14T02:24:55.488Z,18.90
2018-07-14T02:27:22.751Z,19.30
2018-07-14T02:29:50.523Z,18.90
2018-07-14T02:32:17.842Z,18.90
2018-07-14T02:34:45.074Z,19.00
2018-07-14T02:37:12.575Z,18.80
2018-07-14T02:39:40.026Z,18.80
2018-07-14T02:42:07.277Z,18.80
2018-07-14T02:47:02.288Z,18.60
2018-07-14T02:49:29.758Z,18.80
2018-07-14T02:51:57.203Z,18.60
2018-07-14T02:54:24.658Z,18.60
2018-07-14T02:56:52.140Z,18.60
2018-07-14T02:59:19.606Z,19.00
2018-07-14T03:01:47.121Z,18.50
2018-07-14T03:04:17.436Z,18.50
2018-07-14T03:06:44.721Z,19.10
2018-07-14T03:09:11.989Z,18.90
2018-07-14T03:11:39.299Z,18.40
2018-07-14T03:14:06.576Z,18.70
2018-07-14T03:16:33.871Z,19.10
2018-07-14T03:19:01.127Z,18.40
2018-07-14T03:21:28.423Z,18.40
2018-07-14T03:23:55.692Z,18.60
2018-07-14T03:26:22.985Z,18.30
2018-07-14T03:28:50.330Z,18.20
2018-07-14T03:31:17.611Z,18.60
2018-07-14T03:33:44.966Z,19.00
2018-07-14T03:36:12.242Z,18.30
2018-07-14T03:38:39.735Z,18.20
2018-07-14T03:41:07.318Z,18.20
2018-07-14T03:43:34.784Z,18.20
2018-07-14T03:46:02.251Z,18.50
2018-07-14T03:48:29.739Z,18.40
2018-07-14T03:50:57.051Z,18.50
2018-07-14T03:53:24.528Z,18.40
2018-07-14T03:55:52.003Z,18.00
2018-07-14T03:58:19.487Z,18.10
2018-07-14T04:00:46.950Z,18.30
2018-07-14T04:03:14.434Z,18.00
2018-07-14T04:05:41.732Z,18.20
2018-07-14T04:08:09.196Z,18.10
2018-07-14T04:10:36.651Z,17.90
2018-07-14T04:13:04.128Z,18.10
2018-07-14T04:15:31.605Z,18.30
2018-07-14T04:18:02.529Z,18.00
2018-07-14T04:20:30.009Z,18.00
2018-07-14T04:22:57.871Z,18.10
2018-07-14T04:25:25.343Z,18.00
2018-07-14T04:27:52.851Z,18.10
2018-07-14T04:30:20.333Z,18.00
2018-07-14T04:32:47.840Z,18.00
2018-07-14T04:35:15.403Z,18.30
2018-07-14T04:37:42.936Z,18.20
2018-07-14T04:40:10.396Z,18.00
2018-07-14T04:42:37.899Z,18.30
2018-07-14T04:45:05.482Z,18.50
2018-07-14T04:47:32.931Z,18.20
2018-07-14T04:50:00.400Z,18.50
2018-07-14T04:52:27.845Z,18.40
2018-07-14T04:54:55.309Z,18.10
2018-07-14T04:57:22.812Z,18.30
2018-07-14T04:59:50.342Z,18.30
2018-07-14T05:02:17.828Z,18.20
2018-07-14T05:04:45.288Z,18.20
2018-07-14T05:07:12.762Z,18.30
2018-07-14T05:09:40.224Z,18.50
2018-07-14T05:12:07.832Z,18.60
2018-07-14T05:14:35.287Z,18.30
2018-07-14T05:17:02.764Z,18.60
2018-07-14T05:19:30.253Z,18.60
2018-07-14T05:21:57.709Z,18.80
2018-07-14T05:24:25.227Z,18.40
2018-07-14T05:26:52.763Z,18.40
2018-07-14T05:29:20.236Z,18.30
2018-07-14T05:31:47.753Z,19.10
2018-07-14T05:34:15.219Z,18.60
2018-07-14T05:36:42.709Z,18.40
2018-07-14T05:41:37.635Z,18.80
2018-07-14T05:44:05.180Z,19.20
2018-07-14T05:46:32.609Z,19.10
2018-07-14T05:49:00.069Z,19.10
2018-07-14T05:51:27.574Z,19.40
2018-07-14T05:53:55.036Z,19.40
2018-07-14T05:56:22.523Z,19.60
2018-07-14T05:58:50.009Z,19.30
2018-07-14T06:01:17.643Z,19.30
2018-07-14T06:03:45.104Z,19.40
2018-07-14T06:06:12.579Z,19.70
2018-07-14T06:08:40.040Z,19.70
2018-07-14T06:11:07.546Z,19.50
2018-07-14T06:13:34.987Z,19.70
2018-07-14T06:16:02.600Z,19.70
2018-07-14T06:18:30.149Z,20.20
2018-07-14T06:20:57.616Z,19.70
2018-07-14T06:23:25.115Z,20.10
2018-07-14T06:25:52.564Z,20.10
2018-07-14T06:28:20.004Z,20.00
2018-07-14T06:30:47.444Z,20.30
2018-07-14T06:33:14.905Z,20.20
2018-07-14T06:35:42.442Z,20.20
2018-07-14T06:38:09.891Z,20.60
2018-07-14T06:40:37.403Z,20.90
2018-07-14T06:43:04.948Z,20.50
2018-07-14T06:45:32.444Z,21.00
2018-07-14T06:47:59.913Z,21.00
2018-07-14T06:50:27.472Z,20.70
2018-07-14T06:52:55.206Z,20.80
2018-07-14T06:55:22.596Z,21.10
2018-07-14T06:57:51.078Z,21.00
2018-07-14T07:00:18.373Z,21.10
2018-07-14T07:02:45.827Z,21.30
2018-07-14T07:05:13.175Z,21.30
2018-07-14T07:07:40.652Z,21.50
2018-07-14T07:10:08.287Z,21.50
2018-07-14T07:12:35.537Z,21.80
2018-07-14T07:15:03.977Z,21.80
2018-07-14T07:17:32.304Z,22.10
2018-07-14T07:20:00.742Z,22.00
2018-07-14T07:22:28.108Z,22.10
2018-07-14T07:24:55.380Z,21.70
2018-07-14T07:27:22.619Z,22.50
2018-07-14T07:29:49.922Z,22.40
2018-07-14T07:32:17.397Z,23.10
2018-07-14T07:34:44.681Z,22.60
2018-07-14T07:39:39.228Z,24.10
2018-07-14T07:42:06.556Z,25.50
2018-07-14T07:44:33.976Z,26.20
2018-07-14T07:47:01.271Z,27.70
2018-07-14T07:49:28.548Z,28.90
2018-07-14T07:51:56.099Z,30.40
2018-07-14T07:54:23.590Z,31.40
2018-07-14T07:56:51.053Z,32.50
2018-07-14T07:59:18.333Z,33.60
2018-07-14T08:01:46.376Z,34.70
2018-07-14T08:04:13.716Z,35.40
2018-07-14T08:06:40.988Z,36.30
2018-07-14T08:09:08.535Z,36.90
2018-07-14T08:11:35.997Z,37.50
2018-07-14T08:14:03.804Z,37.90
2018-07-14T08:16:31.267Z,38.10
2018-07-14T08:18:58.828Z,38.10
2018-07-14T08:21:26.407Z,38.50
2018-07-14T08:23:53.913Z,38.40
2018-07-14T08:26:21.415Z,38.30
2018-07-14T08:28:48.913Z,38.40
2018-07-14T08:31:16.488Z,38.50
2018-07-14T08:33:44.001Z,38.50
2018-07-14T08:36:11.477Z,37.60
2018-07-14T08:38:38.980Z,36.40
2018-07-14T08:41:06.564Z,35.20
2018-07-14T08:43:34.211Z,34.00
2018-07-14T08:46:01.664Z,32.60
2018-07-14T08:48:29.116Z,31.20
2018-07-14T08:50:56.576Z,30.10
2018-07-14T08:53:24.051Z,29.30
2018-07-14T08:55:51.504Z,28.50
2018-07-14T08:58:22.212Z,28.00
2018-07-14T09:00:49.484Z,27.70
2018-07-14T09:03:17.028Z,27.40
2018-07-14T09:05:44.541Z,26.90
2018-07-14T09:08:11.783Z,26.80
2018-07-14T09:10:39.258Z,26.70
2018-07-14T09:13:06.749Z,26.60
2018-07-14T09:15:34.195Z,26.40
2018-07-14T09:18:01.721Z,26.60
2018-07-14T09:20:29.168Z,26.50
2018-07-14T09:22:56.600Z,26.20
2018-07-14T09:25:24.048Z,26.10
2018-07-14T09:27:51.464Z,26.10
2018-07-14T09:30:18.950Z,26.10
2018-07-14T09:32:46.461Z,26.10
2018-07-14T09:35:13.922Z,25.80
2018-07-14T09:37:41.364Z,26.00
2018-07-14T09:40:08.803Z,25.90
2018-07-14T09:42:36.247Z,26.40
2018-07-14T09:45:04.401Z,26.40
2018-07-14T09:47:31.862Z,26.50
2018-07-14T09:49:59.306Z,26.10
2018-07-14T09:52:26.829Z,26.60
2018-07-14T09:54:54.299Z,26.20
2018-07-14T09:57:21.759Z,26.30
2018-07-14T09:59:49.325Z,26.20
2018-07-14T10:02:18.959Z,26.30
2018-07-14T10:04:46.379Z,26.20
2018-07-14T10:07:13.753Z,26.20
2018-07-14T10:09:43.868Z,26.20
2018-07-14T10:12:11.183Z,26.20
2018-07-14T10:14:38.702Z,26.20
2018-07-14T10:17:15.782Z,26.20
2018-07-14T10:19:55.287Z,26.10
2018-07-14T10:22:22.660Z,26.10
2018-07-14T10:24:49.941Z,26.10
2018-07-14T10:27:27.841Z,26.30
2018-07-14T10:29:55.100Z,26.30
2018-07-14T10:32:22.430Z,26.50
2018-07-14T10:34:49.706Z,26.90
2018-07-14T10:37:17.220Z,26.70
2018-07-14T10:39:44.541Z,26.40
2018-07-14T10:42:11.877Z,26.60
2018-07-14T10:44:39.087Z,26.50
2018-07-14T10:47:06.319Z,26.70
2018-07-14T10:49:33.583Z,26.80
2018-07-14T10:52:00.824Z,26.90
2018-07-14T10:54:28.149Z,27.30
2018-07-14T10:56:55.415Z,26.80
2018-07-14T10:59:31.231Z,26.70
2018-07-14T11:01:58.562Z,26.70
2018-07-14T11:04:25.934Z,26.80
2018-07-14T11:06:53.104Z,26.90
2018-07-14T11:09:20.355Z,27.10
2018-07-14T11:11:47.684Z,27.00
2018-07-14T11:14:15.007Z,26.90
2018-07-14T11:16:42.272Z,26.80
2018-07-14T11:19:09.516Z,26.90
2018-07-14T11:21:36.777Z,27.00
2018-07-14T11:24:04.596Z,26.90
2018-07-14T11:26:31.922Z,26.90
2018-07-14T11:28:59.975Z,27.10
2018-07-14T11:31:27.265Z,27.20
2018-07-14T11:33:54.552Z,27.70
2018-07-14T11:36:21.807Z,27.40
2018-07-14T11:38:49.515Z,27.50
2018-07-14T11:41:16.934Z,27.40
2018-07-14T11:43:45.260Z,27.40
2018-07-14T11:46:12.572Z,27.50
2018-07-14T11:48:40.151Z,27.60
2018-07-14T11:51:07.479Z,27.60
2018-07-14T11:53:34.744Z,27.70
2018-07-14T11:56:02.008Z,27.80
2018-07-14T11:58:30.458Z,27.70
2018-07-14T12:00:57.959Z,27.60
2018-07-14T12:03:25.235Z,27.50
2018-07-14T12:05:52.487Z,27.40
2018-07-14T12:08:20.500Z,27.90
2018-07-14T12:10:47.948Z,27.60
2018-07-14T12:13:16.148Z,27.70
2018-07-14T12:15:43.408Z,27.50
2018-07-14T12:18:10.649Z,27.70
2018-07-14T12:20:37.899Z,27.80
2018-07-14T12:23:05.151Z,28.00
2018-07-14T12:25:32.459Z,27.60
2018-07-14T12:27:59.735Z,27.70
2018-07-14T12:30:27.037Z,27.70
2018-07-14T12:32:54.236Z,27.60
2018-07-14T12:35:21.507Z,27.90
2018-07-14T12:37:48.884Z,27.30
2018-07-14T12:40:16.147Z,27.40
2018-07-14T12:42:43.576Z,27.30
2018-07-14T12:45:15.058Z,27.60
2018-07-14T12:47:42.385Z,27.60
2018-07-14T12:50:09.615Z,27.70
2018-07-14T12:52:36.968Z,28.00
2018-07-14T12:55:04.271Z,27.50
2018-07-14T12:57:31.584Z,27.50
2018-07-14T12:59:58.892Z,27.50
2018-07-14T13:02:26.239Z,27.60
2018-07-14T13:04:53.529Z,27.70
2018-07-14T13:07:20.860Z,27.80
2018-07-14T13:09:48.180Z,27.70
2018-07-14T13:12:15.569Z,28.30
2018-07-14T13:14:42.847Z,27.90
2018-07-14T13:17:10.232Z,27.80
2018-07-14T13:19:37.478Z,27.90
2018-07-14T13:22:04.816Z,27.70
2018-07-14T13:24:32.110Z,28.00
2018-07-14T13:26:59.423Z,27.90
2018-07-14T13:29:26.704Z,28.00
2018-07-14T13:31:54.023Z,27.60
2018-07-14T13:34:21.305Z,27.80
2018-07-14T13:36:48.623Z,27.90
2018-07-14T13:39:15.967Z,27.50
2018-07-14T13:41:43.271Z,27.90
2018-07-14T13:44:10.548Z,27.90
2018-07-14T13:46:37.872Z,27.90
2018-07-14T13:49:05.189Z,28.00
2018-07-14T13:51:33.051Z,28.30
2018-07-14T13:54:00.529Z,28.20
2018-07-14T13:56:27.785Z,28.20
2018-07-14T13:58:55.103Z,28.30
2018-07-14T14:01:22.370Z,28.20
2018-07-14T14:03:49.777Z,28.10
2018-07-14T14:06:17.140Z,28.10
2018-07-14T14:08:44.389Z,28.20
2018-07-14T14:13:38.919Z,28.20
2018-07-14T14:16:06.452Z,28.10
2018-07-14T14:18:33.746Z,28.10
2018-07-14T14:21:01.046Z,28.00
2018-07-14T14:23:28.303Z,28.20
2018-07-14T14:25:55.583Z,27.90
2018-07-14T14:28:22.847Z,27.80
2018-07-14T14:30:50.167Z,27.90
2018-07-14T14:33:17.486Z,28.00
2018-07-14T14:35:44.821Z,27.90
2018-07-14T14:38:12.068Z,27.90
2018-07-14T14:40:39.332Z,27.70
2018-07-14T14:43:06.612Z,27.70
2018-07-14T14:45:33.875Z,27.80
2018-07-14T14:48:01.128Z,27.80
2018-07-14T14:50:28.413Z,28.10
2018-07-14T14:52:55.711Z,28.00
2018-07-14T14:55:23.038Z,27.90
2018-07-14T14:57:50.320Z,27.90
2018-07-14T15:00:17.638Z,27.70
2018-07-14T15:02:45.064Z,27.80
2018-07-14T15:05:12.505Z,27.80
2018-07-14T15:07:40.349Z,27.70
2018-07-14T15:10:07.619Z,27.80
2018-07-14T15:12:34.881Z,27.70
2018-07-14T15:15:02.180Z,27.70
2018-07-14T15:17:29.876Z,27.80
2018-07-14T15:19:57.136Z,28.20
2018-07-14T15:22:24.513Z,27.70
2018-07-14T15:24:51.817Z,27.80
2018-07-14T15:27:19.111Z,27.90
2018-07-14T15:29:46.403Z,27.80
2018-07-14T15:32:13.722Z,27.80
2018-07-14T15:34:41.039Z,27.80
2018-07-14T15:37:08.347Z,27.60
2018-07-14T15:39:35.604Z,27.50
2018-07-14T15:42:02.860Z,27.90
2018-07-14T15:44:30.144Z,27.80
2018-07-14T15:46:57.444Z,27.90
2018-07-14T15:49:24.735Z,27.80
2018-07-14T15:51:52.032Z,27.90
2018-07-14T15:54:19.308Z,27.90
2018-07-14T15:56:46.622Z,27.80
2018-07-14T15:59:14.087Z,27.80
2018-07-14T16:01:41.574Z,27.70
2018-07-14T16:04:09.029Z,27.60
2018-07-14T16:06:36.536Z,27.70
2018-07-14T16:09:04.762Z,27.60
2018-07-14T16:11:32.264Z,27.50
2018-07-14T16:13:59.758Z,27.50
2018-07-14T16:16:27.264Z,27.60
2018-07-14T16:18:54.740Z,27.30
2018-07-14T16:21:22.215Z,27.70
2018-07-14T16:23:49.640Z,27.40
2018-07-14T16:26:17.205Z,27.40
2018-07-14T16:28:44.704Z,27.40
2018-07-14T16:31:12.249Z,27.30
2018-07-14T16:33:39.738Z,27.30
2018-07-14T16:36:07.244Z,27.20
2018-07-14T16:38:34.776Z,27.40
2018-07-14T16:41:05.966Z,27.30
2018-07-14T16:43:33.269Z,27.30
2018-07-14T16:46:00.571Z,27.20
2018-07-14T16:48:27.875Z,27.20
2018-07-14T16:50:55.179Z,27.50
2018-07-14T16:53:22.447Z,27.50
2018-07-14T16:55:49.748Z,27.20
2018-07-14T16:58:17.147Z,27.30
2018-07-14T17:00:44.336Z,27.30
2018-07-14T17:03:13.995Z,27.20
2018-07-14T17:05:41.248Z,27.20
2018-07-14T17:08:08.537Z,27.20
2018-07-14T17:10:35.812Z,27.20
2018-07-14T17:13:03.181Z,27.60
2018-07-14T17:15:30.535Z,27.20
2018-07-14T17:17:57.819Z,27.10
2018-07-14T17:20:25.104Z,27.20
2018-07-14T17:22:57.344Z,27.20
2018-07-14T17:25:24.608Z,27.10
2018-07-14T17:27:51.889Z,27.10
2018-07-14T17:30:19.184Z,27.00
2018-07-14T17:32:46.469Z,27.00
2018-07-14T17:35:13.744Z,27.00
2018-07-14T17:37:41.008Z,26.90
2018-07-14T17:40:08.255Z,26.90
2018-07-14T17:42:35.623Z,27.00
2018-07-14T17:45:03.010Z,26.90
2018-07-14T17:47:32.957Z,26.80
2018-07-14T17:50:02.884Z,26.60
2018-07-14T17:52:30.204Z,26.70
2018-07-14T17:54:57.476Z,26.70
2018-07-14T17:57:24.743Z,26.70
2018-07-14T17:59:52.047Z,26.90
2018-07-14T18:02:19.296Z,26.70
2018-07-14T18:04:46.573Z,26.50
2018-07-14T18:07:13.808Z,26.90
2018-07-14T18:09:45.371Z,26.40
2018-07-14T18:12:12.667Z,26.40
2018-07-14T18:14:39.991Z,26.40
2018-07-14T18:20:04.040Z,26.20
2018-07-14T18:22:32.249Z,26.10
2018-07-14T18:24:59.585Z,26.10
2018-07-14T18:27:26.892Z,26.00
2018-07-14T18:29:56.075Z,26.00
2018-07-14T18:32:25.427Z,25.90
2018-07-14T18:34:52.727Z,25.80
2018-07-14T18:37:19.987Z,25.80
2018-07-14T18:39:47.217Z,25.90
2018-07-14T18:42:14.461Z,25.70
2018-07-14T18:44:44.789Z,25.60
2018-07-14T18:47:12.042Z,25.60
2018-07-14T18:49:39.258Z,25.60
2018-07-14T18:52:06.598Z,25.60
2018-07-14T18:54:33.959Z,25.70
2018-07-14T18:57:01.268Z,25.30
2018-07-14T18:59:28.499Z,25.40
2018-07-14T19:01:58.125Z,25.30
2018-07-14T19:04:25.411Z,25.30
2018-07-14T19:06:52.732Z,25.50
2018-07-14T19:09:20.029Z,25.30
2018-07-14T19:11:47.296Z,25.20
2018-07-14T19:14:15.445Z,25.20
2018-07-14T19:16:44.364Z,25.10
2018-07-14T19:19:11.611Z,25.10
2018-07-14T19:21:38.871Z,25.00
2018-07-14T19:24:06.135Z,25.00
2018-07-14T19:26:35.827Z,24.90
2018-07-14T19:29:05.596Z,24.80
2018-07-14T19:31:32.924Z,24.80
2018-07-14T19:34:00.203Z,24.70
2018-07-14T19:36:29.969Z,24.60
2018-07-14T19:38:57.208Z,24.60
2018-07-14T19:41:24.476Z,24.50
2018-07-14T19:43:51.698Z,24.40
2018-07-14T19:46:18.934Z,24.50
2018-07-14T19:48:46.183Z,24.40
2018-07-14T19:51:15.639Z,24.60
2018-07-14T19:53:42.892Z,24.70
2018-07-14T19:56:10.207Z,24.20
2018-07-14T19:58:42.529Z,24.10
2018-07-14T20:01:09.764Z,24.10
2018-07-14T20:03:37.036Z,24.00
2018-07-14T20:06:04.384Z,23.90
2018-07-14T20:08:31.632Z,23.70
2018-07-14T20:10:58.864Z,23.80
2018-07-14T20:13:26.164Z,23.70
2018-07-14T20:15:53.456Z,23.70
2018-07-14T20:18:22.623Z,23.80
2018-07-14T20:20:49.873Z,23.60
2018-07-14T20:23:17.124Z,23.50
2018-07-14T20:25:44.371Z,23.40
2018-07-14T20:28:11.643Z,23.40
2018-07-14T20:30:38.920Z,23.50
2018-07-14T20:33:06.228Z,23.60
2018-07-14T20:35:37.055Z,23.20
2018-07-14T20:38:04.307Z,23.10
2018-07-14T20:40:32.117Z,23.10
2018-07-14T20:42:59.348Z,23.00
2018-07-14T20:45:26.613Z,23.30
2018-07-14T20:47:53.855Z,22.90
2018-07-14T20:50:21.134Z,22.70
2018-07-14T20:52:48.435Z,22.70
2018-07-14T20:55:15.767Z,22.60
2018-07-14T20:57:43.016Z,22.70
2018-07-14T21:00:10.276Z,22.20
2018-07-14T21:02:37.528Z,22.30
2018-07-14T21:05:04.808Z,22.80
2018-07-14T21:07:32.088Z,22.40
2018-07-14T21:09:59.362Z,22.10
2018-07-14T21:12:31.334Z,22.10
2018-07-14T21:14:58.556Z,22.00
2018-07-14T21:17:25.881Z,22.00
2018-07-14T21:19:53.156Z,21.90
2018-07-14T21:22:21.528Z,21.90
2018-07-14T21:24:48.764Z,21.80
2018-07-14T21:27:16.029Z,21.70
2018-07-14T21:29:43.350Z,21.80
2018-07-14T21:32:10.602Z,21.60
2018-07-14T21:37:05.103Z,21.50
2018-07-14T21:39:32.471Z,21.60
2018-07-14T21:41:59.756Z,21.40
2018-07-14T21:44:27.056Z,21.40
2018-07-14T21:46:54.312Z,21.40
2018-07-14T21:49:21.569Z,21.40
2018-07-14T21:56:43.392Z,21.30
2018-07-14T21:59:10.758Z,21.30
2018-07-14T22:01:55.838Z,21.30
2018-07-14T22:04:23.214Z,21.30
2018-07-14T22:06:51.272Z,21.10
2018-07-14T22:09:18.569Z,21.20
2018-07-14T22:11:45.888Z,21.10
2018-07-14T22:14:13.173Z,21.10
2018-07-14T22:16:40.466Z,21.10
2018-07-14T22:19:07.771Z,21.00
2018-07-14T22:24:02.447Z,20.90
2018-07-14T22:26:29.826Z,20.90
2018-07-14T22:28:57.345Z,21.10
2018-07-14T22:31:24.837Z,20.90
2018-07-14T22:33:52.136Z,20.90
2018-07-14T22:36:20.293Z,20.80
2018-07-14T22:38:47.546Z,20.80
2018-07-14T22:41:14.784Z,20.80
2018-07-14T22:43:42.007Z,21.10
2018-07-14T22:46:09.256Z,20.80
2018-07-14T22:48:36.588Z,21.00
2018-07-14T22:51:03.890Z,20.90
2018-07-14T22:53:31.141Z,20.60
2018-07-14T22:55:58.413Z,20.90
2018-07-14T22:58:25.684Z,20.50
2018-07-14T23:00:53.088Z,20.90
2018-07-14T23:03:20.337Z,20.50
2018-07-14T23:05:50.980Z,20.60
2018-07-14T23:08:18.279Z,20.40
2018-07-14T23:10:45.512Z,20.40
2018-07-14T23:13:12.754Z,20.50
2018-07-14T23:15:39.995Z,20.60
2018-07-14T23:18:07.248Z,20.30
2018-07-14T23:20:34.572Z,20.40
2018-07-14T23:23:01.894Z,20.30
2018-07-14T23:25:29.141Z,20.30
2018-07-14T23:27:56.400Z,20.00
2018-07-14T23:32:50.920Z,20.00
2018-07-14T23:37:51.027Z,20.00
2018-07-14T23:40:18.300Z,20.10
2018-07-14T23:42:45.548Z,20.30
2018-07-14T23:45:12.816Z,20.20
2018-07-14T23:47:40.048Z,20.10
2018-07-14T23:50:07.297Z,19.90
2018-07-14T23:52:34.738Z,20.20
2018-07-14T23:55:02.033Z,19.90
2018-07-14T23:57:29.279Z,20.00
2018-07-14T23:59:56.526Z,19.90
